Time;durP1;ratioP1;P1;durP2;ratioP2;P2;SDS_P1;SDS_P2;PMS_P1;PMS_P2;Temp;Humidity;BMP_temperature;BMP_pressure;BME280_temperature;BME280_humidity;BME280_pressure;Samples;Min_cycle;Max_cycle;Signal;HPM_P1;HPM_P2
2021/04/17 00:02:26;;;;;;;19.52;8.90;;;;;;;1.29;82.12;100063.61;1747183;79;21238;-68
2021/04/17 00:04:53;;;;;;;25.88;9.53;;;;;;;1.27;82.16;100066.17;1712263;81;21243;-69
2021/04/17 00:07:20;;;;;;;22.02;8.78;;;;;;;1.29;82.21;100063.61;1718631;81;21161;-68
2021/04/17 00:09:47;;;;;;;26.45;10.43;;;;;;;1.27;82.16;100062.75;1710331;81;21179;-69
2021/04/17 00:12:18;;;;;;;26.05;10.70;;;;;;;1.24;82.20;100067.91;1708234;83;21146;-69
2021/04/17 00:14:49;;;;;;;26.48;11.68;;;;;;;1.24;82.18;100066.63;1711177;81;22202;-68
2021/04/17 00:17:18;;;;;;;21.45;10.20;;;;;;;1.22;82.24;100060.63;1710555;81;21149;-68
2021/04/17 00:19:50;;;;;;;25.95;11.38;;;;;;;1.23;82.21;100058.47;1708755;83;21598;-67
2021/04/17 00:22:17;;;;;;;24.02;10.10;;;;;;;1.22;82.24;100056.77;1713476;81;22226;-68
2021/04/17 00:24:44;;;;;;;24.00;9.88;;;;;;;1.21;82.22;100056.35;1706275;81;21226;-67
2021/04/17 00:27:11;;;;;;;19.67;9.38;;;;;;;1.19;82.23;100061.92;1710616;81;21208;-67
2021/04/17 00:29:38;;;;;;;29.65;10.98;;;;;;;1.10;82.07;100054.66;1710904;81;21162;-67
2021/04/17 00:32:08;;;;;;;28.07;11.73;;;;;;;1.06;82.19;100056.80;1711681;81;21222;-67
2021/04/17 00:34:35;;;;;;;22.05;10.98;;;;;;;1.06;82.32;100051.66;1717778;81;21645;-67
2021/04/17 00:37:03;;;;;;;25.48;10.80;;;;;;;1.06;82.25;100054.23;1708565;81;21171;-67
2021/04/17 00:39:30;;;;;;;25.82;10.90;;;;;;;1.05;82.31;100056.83;1712332;83;21420;-67
2021/04/17 00:41:56;;;;;;;42.10;14.15;;;;;;;0.97;82.02;100056.84;1706769;81;21287;-67
2021/04/17 00:44:23;;;;;;;27.35;12.28;;;;;;;0.93;82.21;100057.72;1713025;81;21072;-68
2021/04/17 00:46:51;;;;;;;25.32;11.60;;;;;;;0.91;82.31;100058.15;1709427;81;21660;-68
2021/04/17 00:49:18;;;;;;;25.82;11.88;;;;;;;0.89;82.33;100056.00;1711671;81;26702;-67
2021/04/17 00:51:45;;;;;;;19.90;12.05;;;;;;;0.90;82.46;100056.45;1711058;81;21207;-67
2021/04/17 00:54:12;;;;;;;25.92;10.65;;;;;;;0.92;82.46;100054.70;1702947;81;21159;-67
2021/04/17 00:56:39;;;;;;;29.65;11.80;;;;;;;0.91;82.38;100055.58;1712393;81;21051;-67
2021/04/17 00:59:06;;;;;;;38.08;11.85;;;;;;;0.90;82.37;100050.02;1713087;81;22648;-67
2021/04/17 01:01:33;;;;;;;33.33;12.80;;;;;;;0.90;82.41;100057.73;1713383;81;21157;-67
2021/04/17 01:04:20;;;;;;;24.43;11.55;;;;;;;0.91;82.39;100041.44;1718777;81;21227;-67
2021/04/17 01:07:09;;;;;;;26.23;11.88;;;;;;;0.90;82.52;100042.31;1712421;81;23906;-67
2021/04/17 01:09:50;;;;;;;30.77;11.57;;;;;;;0.91;82.56;100044.02;1714814;81;21629;-68
2021/04/17 01:12:24;;;;;;;22.85;11.53;;;;;;;0.88;82.32;100046.59;1719350;83;21138;-68
2021/04/17 01:14:53;;;;;;;22.85;9.95;;;;;;;0.85;82.42;100041.46;1692250;81;21222;-68
2021/04/17 01:17:21;;;;;;;22.58;10.50;;;;;;;0.82;82.48;100042.33;1713120;81;21242;-68
2021/04/17 01:19:57;;;;;;;30.40;10.68;;;;;;;0.78;82.27;100034.61;1705616;83;21191;-68
2021/04/17 01:22:25;;;;;;;17.15;8.60;;;;;;;0.71;82.19;100032.94;1707040;82;21187;-68
2021/04/17 01:25:10;;;;;;;18.90;8.80;;;;;;;0.66;82.24;100027.36;1716980;81;21169;-68
2021/04/17 01:27:38;;;;;;;17.67;9.73;;;;;;;0.66;82.41;100036.35;1707556;81;21195;-67
2021/04/17 01:30:16;;;;;;;25.12;9.73;;;;;;;0.63;82.40;100026.08;1711406;81;21201;-68
2021/04/17 01:32:45;;;;;;;14.35;8.95;;;;;;;0.57;82.48;100026.09;1712379;81;21099;-68
2021/04/17 01:35:17;;;;;;;18.10;9.85;;;;;;;0.58;82.68;100030.36;1715229;81;21033;-67
2021/04/17 01:37:55;;;;;;;21.97;8.73;;;;;;;0.57;82.64;100031.23;1718649;82;21194;-67
2021/04/17 01:40:26;;;;;;;19.32;9.50;;;;;;;0.57;82.77;100041.52;1709130;81;21192;-68
2021/04/17 01:42:54;;;;;;;21.15;9.40;;;;;;;0.55;82.59;100043.22;1701287;81;21210;-67
2021/04/17 01:45:24;;;;;;;18.77;7.80;;;;;;;0.57;82.79;100038.95;1714342;81;21692;-68
2021/04/17 01:47:55;;;;;;;21.17;7.83;;;;;;;0.53;82.70;100042.36;1709595;81;21237;-68
2021/04/17 01:50:25;;;;;;;13.45;8.05;;;;;;;0.55;82.90;100038.08;1710657;81;20983;-68
2021/04/17 01:52:54;;;;;;;32.63;8.63;;;;;;;0.57;82.82;100031.23;1710123;83;21182;-68
2021/04/17 01:55:22;;;;;;;22.20;8.68;;;;;;;0.55;82.84;100030.37;1683156;83;22360;-68
2021/04/17 01:57:50;;;;;;;20.15;8.28;;;;;;;0.55;82.86;100029.53;1711570;81;21222;-68
2021/04/17 02:00:19;;;;;;;23.20;8.95;;;;;;;0.57;82.96;100026.09;1717902;81;21147;-68
2021/04/17 02:02:46;;;;;;;16.57;7.55;;;;;;;0.60;82.97;100026.09;1706288;81;21223;-68
2021/04/17 02:05:15;;;;;;;19.57;7.50;;;;;;;0.63;82.95;100021.38;1713465;81;21183;-68
2021/04/17 02:07:42;;;;;;;16.10;7.00;;;;;;;0.64;82.87;100022.67;1720749;81;21274;-68
2021/04/17 02:10:10;;;;;;;12.88;6.97;;;;;;;0.66;82.92;100032.49;1712596;81;21292;-68
2021/04/17 02:12:37;;;;;;;17.87;6.85;;;;;;;0.70;82.98;100031.20;1718972;81;21577;-68
2021/04/17 02:15:29;;;;;;;16.48;7.15;;;;;;;0.72;82.92;100025.20;1713425;81;21055;-68
2021/04/17 02:18:09;;;;;;;12.25;7.53;;;;;;;0.75;83.04;100032.05;1640465;86;21176;-68
2021/04/17 02:20:42;;;;;;;13.70;6.70;;;;;;;0.76;83.01;100029.92;1637456;86;21571;-68
2021/04/17 02:23:11;;;;;;;15.50;7.42;;;;;;;0.81;83.18;100025.20;1636750;86;21242;-68
2021/04/17 02:25:39;;;;;;;11.85;7.42;;;;;;;0.88;83.22;100026.87;1642745;86;21148;-68
2021/04/17 02:28:08;;;;;;;12.45;7.67;;;;;;;0.92;83.07;100027.71;1638269;86;22360;-68
2021/04/17 02:30:38;;;;;;;14.43;6.83;;;;;;;0.98;83.20;100026.44;1625018;86;21135;-68
2021/04/17 02:33:06;;;;;;;12.75;7.78;;;;;;;1.03;83.24;100031.10;1598247;86;21169;-68
2021/04/17 02:35:33;;;;;;;19.05;8.78;;;;;;;1.08;83.07;100025.52;1640119;86;21211;-68
2021/04/17 02:38:00;;;;;;;17.77;7.80;;;;;;;1.03;82.90;100015.67;1641182;86;21211;-68
2021/04/17 02:40:27;;;;;;;13.98;8.15;;;;;;;1.05;83.07;100012.67;1639452;86;22185;-68
2021/04/17 02:42:55;;;;;;;12.58;6.45;;;;;;;1.07;83.04;100017.39;1624649;86;21680;-68
2021/04/17 02:45:22;;;;;;;;;;;;;;;1.14;83.28;100013.50;1598127;88;21253;-68
2021/04/17 02:47:48;;;;;;;17.00;9.10;;;;;;;1.17;83.15;100020.77;1644551;86;20330;-68
2021/04/17 02:50:15;;;;;;;13.53;7.33;;;;;;;1.10;82.81;100026.38;1642998;86;21192;-68
2021/04/17 02:52:42;;;;;;;16.20;8.68;;;;;;;1.08;83.04;100022.95;1639823;86;21256;-67
2021/04/17 02:55:11;;;;;;;12.98;7.72;;;;;;;1.14;83.19;100027.64;1641529;86;21175;-67
2021/04/17 02:57:38;;;;;;;16.65;7.03;;;;;;;1.14;83.27;100025.08;1640184;86;21657;-68
2021/04/17 03:00:08;;;;;;;13.72;7.08;;;;;;;1.13;83.35;100033.66;1642237;85;21189;-68
2021/04/17 03:02:35;;;;;;;21.30;7.78;;;;;;;1.12;83.43;100027.64;1628709;86;21245;-68
2021/04/17 03:05:04;;;;;;;17.50;7.20;;;;;;;1.16;83.51;100041.36;1592904;89;21220;-67
2021/04/17 03:07:31;;;;;;;13.58;6.85;;;;;;;1.19;83.44;100042.63;1640018;86;21164;-68
2021/04/17 03:09:58;;;;;;;14.30;6.72;;;;;;;1.20;83.55;100045.62;1628469;86;21438;-68
2021/04/17 03:12:25;;;;;;;13.08;6.90;;;;;;;1.18;83.54;100044.80;1596966;89;21226;-68
2021/04/17 03:14:52;;;;;;;10.98;7.08;;;;;;;1.15;83.63;100052.49;1592272;88;21642;-68
2021/04/17 03:17:19;;;;;;;9.90;6.12;;;;;;;1.10;83.66;100049.52;1633031;86;21207;-68
2021/04/17 03:19:46;;;;;;;12.20;7.17;;;;;;;1.07;83.76;100050.82;1619743;86;21620;-68
2021/04/17 03:22:13;;;;;;;9.63;7.17;;;;;;;1.04;83.91;100052.12;1618612;86;21208;-68
2021/04/17 03:24:40;;;;;;;13.28;8.13;;;;;;;0.99;83.89;100043.56;1619248;87;21228;-68
2021/04/17 03:27:08;;;;;;;13.43;9.30;;;;;;;0.96;84.18;100051.72;1621091;86;21679;-68
2021/04/17 03:29:35;;;;;;;15.65;9.85;;;;;;;0.94;84.34;100052.15;1620547;86;21667;-68
2021/04/17 03:32:04;;;;;;;11.73;7.97;;;;;;;0.93;84.42;100047.44;1618687;86;21249;-68
2021/04/17 03:34:31;;;;;;;13.22;8.93;;;;;;;0.87;84.77;100050.03;1621555;86;21263;-68
2021/04/17 03:36:58;;;;;;;11.00;7.35;;;;;;;0.82;84.78;100047.46;1625443;86;21674;-68
2021/04/17 03:39:25;;;;;;;12.35;7.58;;;;;;;0.80;85.30;100045.75;1618113;86;21430;-68
2021/04/17 03:41:52;;;;;;;10.35;6.37;;;;;;;0.78;84.52;100048.75;1623821;86;21157;-68
2021/04/17 03:44:19;;;;;;;7.58;6.03;;;;;;;0.76;85.03;100046.64;1621688;87;21224;-68
2021/04/17 03:46:46;;;;;;;7.58;5.28;;;;;;;0.75;84.93;100050.05;1621462;86;21221;-68
2021/04/17 03:49:13;;;;;;;9.53;5.95;;;;;;;0.71;86.12;100053.49;1620926;87;21257;-68
2021/04/17 03:51:40;;;;;;;8.65;6.10;;;;;;;0.66;85.01;100049.20;1621199;86;21177;-68
2021/04/17 03:54:07;;;;;;;9.38;5.40;;;;;;;0.64;84.83;100050.94;1618174;86;21234;-68
2021/04/17 03:56:34;;;;;;;5.40;4.87;;;;;;;0.66;84.99;100050.48;1620614;86;21611;-68
2021/04/17 03:59:01;;;;;;;8.50;5.47;;;;;;;0.68;84.93;100048.36;1621237;87;21290;-68
2021/04/17 04:01:28;;;;;;;15.93;6.80;;;;;;;0.71;84.82;100050.92;1624249;87;21231;-68
2021/04/17 04:03:57;;;;;;;11.38;5.80;;;;;;;0.73;84.76;100050.47;1620057;87;21161;-68
2021/04/17 04:06:26;;;;;;;12.05;6.40;;;;;;;0.77;84.74;100049.63;1625993;85;21121;-68
2021/04/17 04:08:53;;;;;;;13.08;6.60;;;;;;;0.84;84.71;100051.30;1620550;86;22404;-68
2021/04/17 04:11:20;;;;;;;12.00;6.25;;;;;;;0.90;84.75;100046.17;1620936;86;21741;-68
2021/04/17 04:13:47;;;;;;;12.68;6.25;;;;;;;0.96;84.61;100036.30;1621830;86;21204;-68
2021/04/17 04:16:14;;;;;;;13.60;6.37;;;;;;;1.03;84.63;100051.67;1626412;86;22405;-68
2021/04/17 04:18:41;;;;;;;18.27;7.83;;;;;;;1.15;84.58;100044.78;1621021;86;22375;-68
2021/04/17 04:21:08;;;;;;;15.68;6.97;;;;;;;1.18;84.39;100037.93;1623096;86;21241;-68
2021/04/17 04:23:35;;;;;;;12.82;6.67;;;;;;;1.19;84.48;100040.06;1621945;86;21710;-68
2021/04/17 04:26:02;;;;;;;11.90;8.40;;;;;;;1.23;84.39;100038.77;1617440;87;21256;-68
2021/04/17 04:28:30;;;;;;;11.57;7.15;;;;;;;1.32;84.45;100040.45;1616751;86;21555;-68
2021/04/17 04:30:57;;;;;;;15.18;7.55;;;;;;;1.34;84.52;100041.27;1621128;87;21217;-67
2021/04/17 04:33:24;;;;;;;16.62;6.33;;;;;;;1.37;84.45;100045.11;1621071;86;21204;-68
2021/04/17 04:35:52;;;;;;;10.85;6.15;;;;;;;1.39;84.33;100047.25;1622146;86;21658;-68
2021/04/17 04:38:19;;;;;;;12.80;6.60;;;;;;;1.40;84.30;100052.84;1618777;87;21240;-68
2021/04/17 04:40:46;;;;;;;11.95;6.42;;;;;;;1.58;84.77;100056.18;1620893;86;21208;-68
2021/04/17 04:43:13;;;;;;;16.23;6.50;;;;;;;2.23;85.00;100057.45;1621936;86;21216;-68
2021/04/17 04:45:40;;;;;;;12.28;6.15;;;;;;;2.38;83.85;100057.34;1621551;86;21163;-66
2021/04/17 04:48:09;;;;;;;10.45;5.37;;;;;;;2.34;83.73;100045.33;1620447;86;21621;-68
2021/04/17 04:50:37;;;;;;;11.68;5.70;;;;;;;2.35;84.03;100047.06;1623803;86;21331;-68
2021/04/17 04:53:04;;;;;;;9.05;5.40;;;;;;;2.61;84.66;100036.95;1616651;86;21091;-67
2021/04/17 04:55:32;;;;;;;11.15;4.85;;;;;;;3.38;84.68;100033.48;1619756;87;21186;-67
2021/04/17 04:57:59;;;;;;;11.05;4.65;;;;;;;3.77;83.74;100037.25;1621569;87;22111;-68
2021/04/17 05:00:28;;;;;;;13.22;5.28;;;;;;;4.50;84.89;100042.98;1618086;86;21285;-69
2021/04/17 05:02:55;;;;;;;7.25;4.47;;;;;;;5.66;84.84;100060.99;1621873;86;21104;-69
2021/04/17 05:08:11;;;;;;;12.28;4.75;;;;;;;5.91;80.63;100050.94;1639700;86;21211;-69
2021/04/17 05:10:38;;;;;;;12.50;5.08;;;;;;;5.55;80.95;100058.21;1639539;86;21208;-70
2021/04/17 05:13:04;;;;;;;12.65;5.05;;;;;;;5.33;81.23;100055.66;1640432;86;21643;-68
2021/04/17 05:15:32;;;;;;;21.17;18.92;;;;;;;5.37;81.51;100055.99;1640091;86;21626;-68
2021/04/17 05:17:59;;;;;;;17.50;11.65;;;;;;;5.41;81.93;100049.88;1640474;86;21299;-68
2021/04/17 05:20:26;;;;;;;8.88;6.37;;;;;;;5.53;81.51;100043.14;1638443;86;21166;-68
2021/04/17 05:22:53;;;;;;;9.25;4.62;;;;;;;5.32;81.38;100040.58;1636445;86;21203;-68
2021/04/17 05:25:20;;;;;;;17.37;4.78;;;;;;;5.44;81.89;100047.23;1642455;86;22381;-69
2021/04/17 05:27:47;;;;;;;12.82;6.40;;;;;;;5.40;82.15;100053.34;1642780;86;21235;-68
2021/04/17 05:30:15;;;;;;;16.55;9.43;;;;;;;5.46;82.55;100055.83;1640559;86;21250;-69
2021/04/17 05:32:42;;;;;;;19.82;8.10;;;;;;;5.43;82.23;100058.45;1641439;86;21722;-68
2021/04/17 05:35:12;;;;;;;15.85;8.23;;;;;;;5.09;81.59;100064.30;1640155;86;21172;-69
2021/04/17 05:37:39;;;;;;;10.03;6.33;;;;;;;4.94;81.97;100062.02;1639716;86;22136;-68
2021/04/17 05:40:08;;;;;;;11.05;6.10;;;;;;;4.84;81.76;100060.48;1639209;86;21208;-68
2021/04/17 05:42:35;;;;;;;10.78;6.03;;;;;;;4.80;81.96;100067.90;1638471;86;21611;-68
2021/04/17 05:45:05;;;;;;;11.95;5.45;;;;;;;4.96;82.20;100073.20;1639688;86;21168;-69
2021/04/17 05:47:32;;;;;;;10.93;6.37;;;;;;;5.14;81.96;100071.55;1640758;86;21623;-69
2021/04/17 05:49:59;;;;;;;17.27;6.08;;;;;;;5.01;81.86;100076.54;1638610;86;21289;-68
2021/04/17 05:52:26;;;;;;;10.20;6.15;;;;;;;4.91;82.05;100069.41;1639946;86;21202;-69
2021/04/17 05:54:53;;;;;;;11.70;5.67;;;;;;;5.27;82.87;100074.77;1641318;86;21090;-68
2021/04/17 05:57:20;;;;;;;11.78;6.08;;;;;;;5.97;82.80;100068.55;1640282;86;21069;-68
2021/04/17 05:59:47;;;;;;;13.13;6.30;;;;;;;6.89;82.96;100061.08;1640272;86;21260;-68
2021/04/17 06:02:14;;;;;;;;;;;;;;;7.94;82.67;100065.41;1642798;86;21215;-68
2021/04/17 06:04:41;;;;;;;7.92;5.20;;;;;;;8.41;80.62;100062.23;1639618;86;20241;-67
2021/04/17 06:07:08;;;;;;;10.98;5.17;;;;;;;9.00;81.19;100057.20;1644096;86;21231;-69
2021/04/17 06:09:35;;;;;;;9.08;4.80;;;;;;;9.54;80.64;100053.02;1649033;86;21155;-68
2021/04/17 06:12:03;;;;;;;8.58;4.37;;;;;;;9.64;78.14;100054.37;1651588;86;22300;-68
2021/04/17 06:14:30;;;;;;;12.10;4.87;;;;;;;9.91;79.44;100046.83;1646689;86;21175;-68
2021/04/17 06:16:57;;;;;;;10.00;4.78;;;;;;;10.27;78.89;100051.07;1649982;85;22326;-68
2021/04/17 06:19:25;;;;;;;10.48;4.87;;;;;;;10.48;78.58;100048.89;1647113;86;21175;-67
2021/04/17 06:21:52;;;;;;;14.58;6.37;;;;;;;10.68;78.03;100044.59;1653511;85;21921;-68
2021/04/17 06:24:19;;;;;;;9.13;5.35;;;;;;;10.90;78.54;100050.59;1647754;86;21227;-68
2021/04/17 06:26:46;;;;;;;19.35;8.58;;;;;;;11.00;74.49;100056.25;1651134;86;21963;-68
2021/04/17 06:29:13;;;;;;;17.73;8.40;;;;;;;10.81;77.28;100058.84;1651394;86;21752;-68
2021/04/17 06:31:41;;;;;;;23.00;13.60;;;;;;;10.44;74.21;100049.91;1651652;86;21601;-68
2021/04/17 06:34:07;;;;;;;;;;;;;;;10.15;76.04;100054.16;1655575;86;21242;-68
2021/04/17 06:36:36;;;;;;;11.15;7.10;;;;;;;10.18;76.83;100055.33;1650198;85;26906;-68
2021/04/17 06:41:46;;;;;;;11.05;7.50;;;;;;;10.45;75.79;100056.85;1790866;78;22832;-68
2021/04/17 06:44:15;;;;;;;13.60;9.43;;;;;;;10.19;76.77;100055.72;1764390;80;21478;-67
2021/04/17 06:46:43;;;;;;;15.90;8.48;;;;;;;10.51;77.18;100061.81;1769049;80;21405;-68
2021/04/17 06:49:11;;;;;;;14.53;7.47;;;;;;;10.64;75.12;100051.72;1765930;80;21135;-69
2021/04/17 06:51:42;;;;;;;10.00;5.87;;;;;;;10.38;75.61;100051.48;1764446;80;21105;-69
2021/04/17 06:54:12;;;;;;;11.18;5.80;;;;;;;10.45;75.87;100058.16;1762290;80;21033;-69
2021/04/17 06:56:41;;;;;;;9.88;6.20;;;;;;;10.73;77.69;100058.31;1767029;80;21082;-67
2021/04/17 06:59:09;;;;;;;9.18;6.17;;;;;;;11.12;77.54;100058.81;1771320;79;21699;-69
2021/04/17 07:01:40;;;;;;;11.30;6.97;;;;;;;11.48;77.56;100063.28;1766457;80;21163;-69
2021/04/17 07:04:08;;;;;;;12.55;7.15;;;;;;;11.73;76.71;100067.77;1761565;80;21654;-69
2021/04/17 07:06:35;;;;;;;13.83;6.28;;;;;;;11.93;76.49;100076.48;1766342;79;21043;-68
2021/04/17 07:09:05;;;;;;;13.98;5.00;;;;;;;11.97;75.84;100074.14;1769243;80;21175;-69
2021/04/17 07:11:33;;;;;;;14.15;5.62;;;;;;;11.91;75.37;100070.51;1762715;79;22280;-69
2021/04/17 07:14:13;;;;;;;13.75;5.12;;;;;;;11.83;76.21;100074.75;1768265;80;21033;-69
2021/04/17 07:17:02;;;;;;;13.15;4.85;;;;;;;11.98;76.40;100071.89;1767639;79;21053;-68
2021/04/17 07:19:59;;;;;;;6.97;4.35;;;;;;;12.05;76.78;100070.70;1762966;80;21147;-68
2021/04/17 07:22:37;;;;;;;8.05;4.50;;;;;;;12.16;77.19;100078.88;1763761;80;21234;-68
2021/04/17 07:25:12;;;;;;;9.20;4.50;;;;;;;11.93;75.28;100082.59;1760311;80;21253;-69
2021/04/17 07:27:51;;;;;;;7.60;4.40;;;;;;;11.75;75.67;100076.41;1766326;80;21087;-69
2021/04/17 07:30:24;;;;;;;7.65;4.37;;;;;;;11.64;76.58;100076.05;1767067;80;21646;-69
2021/04/17 07:33:11;;;;;;;12.28;4.70;;;;;;;11.82;77.33;100076.52;1764418;80;21081;-68
2021/04/17 07:35:48;;;;;;;12.35;5.17;;;;;;;12.05;77.40;100077.23;1766663;80;21186;-68
2021/04/17 07:38:21;;;;;;;12.98;4.30;;;;;;;12.10;77.06;100080.48;1770292;79;21201;-67
2021/04/17 07:41:08;;;;;;;8.48;4.35;;;;;;;12.17;76.76;100080.56;1769520;80;21842;-68
2021/04/17 07:43:55;;;;;;;8.75;4.08;;;;;;;12.10;75.84;100084.41;1765009;80;21701;-68
2021/04/17 07:46:32;;;;;;;7.33;4.47;;;;;;;12.06;76.25;100080.23;1770312;80;21623;-68
2021/04/17 07:49:19;;;;;;;8.83;3.92;;;;;;;12.16;75.77;100071.03;1770746;80;21148;-68
2021/04/17 07:52:01;;;;;;;;;;;;;;;12.05;74.72;100083.78;1770894;80;22090;-68
2021/04/17 07:54:29;;;;;;;7.87;4.45;;;;;;;11.78;73.88;100080.19;1773049;80;20226;-68
2021/04/17 07:56:58;;;;;;;10.23;5.05;;;;;;;12.07;74.98;100083.22;1772875;79;21175;-67
2021/04/17 07:59:26;;;;;;;11.97;5.72;;;;;;;12.11;70.65;100080.02;1769806;79;21533;-69
2021/04/17 08:01:54;;;;;;;9.70;4.95;;;;;;;11.45;70.33;100083.88;1771569;78;21238;-69
2021/04/17 08:04:28;;;;;;;9.85;5.58;;;;;;;11.17;71.76;100079.03;1764391;79;21206;-73
2021/04/17 08:07:00;;;;;;;5.28;4.37;;;;;;;11.13;72.98;100082.71;1774745;79;21244;-68
2021/04/17 08:09:32;;;;;;;14.58;6.03;;;;;;;11.26;72.29;100072.12;1773312;80;21151;-68
2021/04/17 08:12:04;;;;;;;10.10;5.08;;;;;;;11.27;72.52;100092.09;1765579;79;21628;-67
2021/04/17 08:14:35;;;;;;;8.33;4.80;;;;;;;11.36;73.22;100090.38;1770774;80;21566;-66
2021/04/17 08:17:26;;;;;;;8.50;4.85;;;;;;;11.63;73.30;100092.67;1765518;80;21198;-66
2021/04/17 08:19:57;;;;;;;7.35;4.40;;;;;;;11.81;70.84;100098.35;1768155;80;21266;-66
2021/04/17 08:22:29;;;;;;;9.05;4.72;;;;;;;12.05;72.75;100102.10;1773393;79;21163;-66
2021/04/17 08:24:56;;;;;;;8.25;4.53;;;;;;;12.17;71.94;100077.95;1768482;80;21184;-65
2021/04/17 08:27:27;;;;;;;7.37;4.92;;;;;;;12.20;71.91;100094.81;1770626;78;21668;-67
2021/04/17 08:29:58;;;;;;;6.33;3.98;;;;;;;12.21;69.94;100108.31;1768481;78;21274;-67
2021/04/17 08:32:43;;;;;;;7.47;4.20;;;;;;;12.21;70.83;100103.08;1770114;80;21202;-67
2021/04/17 08:35:20;;;;;;;9.38;4.83;;;;;;;12.17;71.90;100108.52;1745269;80;21132;-67
2021/04/17 08:38:04;;;;;;;7.65;4.50;;;;;;;12.33;69.42;100094.24;1745561;80;21886;-66
2021/04/17 08:40:50;;;;;;;7.53;4.55;;;;;;;12.30;70.62;100106.55;1766097;80;21175;-67
2021/04/17 08:43:23;;;;;;;5.13;3.97;;;;;;;12.53;72.23;100113.75;1767103;78;21554;-67
2021/04/17 08:46:15;;;;;;;8.28;4.25;;;;;;;12.64;67.38;100111.45;1710697;82;21274;-67
2021/04/17 08:48:56;;;;;;;7.62;4.12;;;;;;;12.56;69.86;100116.21;1696667;82;21415;-68
2021/04/17 08:51:33;;;;;;;9.63;4.45;;;;;;;12.28;69.17;100112.31;1733964;81;22196;-68
2021/04/17 08:54:05;;;;;;;13.45;4.10;;;;;;;12.29;70.38;100116.65;1732879;81;21235;-68
2021/04/17 08:56:47;;;;;;;9.78;4.12;;;;;;;12.48;70.39;100108.72;1738283;81;22475;-68
2021/04/17 08:59:37;;;;;;;7.22;4.40;;;;;;;12.69;70.84;100098.97;1838638;76;22738;-67
2021/04/17 09:02:14;;;;;;;8.65;4.62;;;;;;;12.79;71.23;100109.83;1805816;77;21044;-67
2021/04/17 09:05:07;;;;;;;4.90;4.08;;;;;;;12.89;70.87;100111.06;1804338;78;21130;-68
2021/04/17 09:07:37;;;;;;;8.00;4.78;;;;;;;12.89;68.78;100110.23;1810862;78;20998;-68
2021/04/17 09:10:31;;;;;;;10.25;4.37;;;;;;;12.99;70.55;100116.67;1806136;77;21682;-67
2021/04/17 09:16:05;;;;;;;8.50;5.05;;;;;;;12.96;69.63;100108.97;1800259;78;22225;-65
2021/04/17 09:18:38;;;;;;;9.20;4.97;;;;;;;12.96;69.63;100108.97;1765141;80;21155;-66
2021/04/17 09:21:17;;;;;;;13.08;4.75;;;;;;;13.30;69.88;100115.13;1771200;79;21355;-66
2021/04/17 09:23:52;;;;;;;10.93;5.22;;;;;;;13.54;69.29;100111.22;1768479;80;21097;-67
2021/04/17 09:26:34;;;;;;;6.67;4.40;;;;;;;13.65;69.12;100123.30;1766310;80;21646;-67
2021/04/17 09:29:08;;;;;;;8.83;4.35;;;;;;;13.57;68.80;100121.55;1763558;80;21064;-68
2021/04/17 09:31:37;;;;;;;8.00;4.33;;;;;;;13.46;67.27;100122.58;1739152;80;21587;-68
2021/04/17 09:34:14;;;;;;;7.53;4.30;;;;;;;13.04;65.85;100118.60;1762679;80;21199;-69
2021/04/17 09:36:41;;;;;;;8.80;4.83;;;;;;;12.72;67.33;100117.16;1766501;80;21157;-69
2021/04/17 09:39:30;;;;;;;5.05;4.50;;;;;;;12.46;65.83;100121.07;1764010;80;21101;-68
2021/04/17 09:42:01;;;;;;;9.63;4.80;;;;;;;12.22;67.21;100120.47;1765965;80;21618;-67
2021/04/17 09:44:45;;;;;;;7.33;3.98;;;;;;;12.21;67.69;100129.25;1769608;79;21272;-70
2021/04/17 09:47:16;;;;;;;8.70;4.45;;;;;;;12.14;67.30;100116.05;1765910;80;21591;-67
2021/04/17 09:49:46;;;;;;;6.22;3.90;;;;;;;12.09;67.83;100125.89;1773189;80;21223;-68
2021/04/17 09:52:22;;;;;;;7.35;4.72;;;;;;;11.94;67.69;100116.16;1766829;80;21191;-68
2021/04/17 09:55:01;;;;;;;6.12;3.80;;;;;;;11.73;67.50;100125.33;1765421;80;21220;-68
2021/04/17 09:57:30;;;;;;;7.12;4.40;;;;;;;11.47;67.71;100120.44;1765670;80;21198;-68
2021/04/17 10:00:02;;;;;;;7.62;5.60;;;;;;;11.16;67.49;100120.47;1767189;80;21175;-68
2021/04/17 10:02:46;;;;;;;7.85;4.85;;;;;;;10.94;67.83;100131.83;1770945;80;21077;-68
2021/04/17 10:05:18;;;;;;;7.70;4.65;;;;;;;10.77;67.69;100121.70;1769260;80;21203;-69
2021/04/17 10:07:53;;;;;;;12.53;5.12;;;;;;;10.67;68.16;100123.83;1769442;80;22231;-67
2021/04/17 10:10:20;;;;;;;9.95;5.78;;;;;;;10.56;68.00;100126.03;1768811;80;21179;-68
2021/04/17 10:12:54;;;;;;;9.58;5.95;;;;;;;10.46;68.33;100131.64;1767950;80;21617;-66
2021/04/17 10:15:29;;;;;;;7.70;4.85;;;;;;;10.37;68.26;100129.41;1767825;80;21175;-69
2021/04/17 10:17:59;;;;;;;10.05;5.50;;;;;;;10.21;68.22;100123.90;1774150;79;21187;-65
2021/04/17 10:20:27;;;;;;;9.45;5.25;;;;;;;10.14;68.46;100118.97;1771918;79;21167;-66
2021/04/17 10:22:59;;;;;;;11.73;5.35;;;;;;;10.14;68.48;100118.97;1773615;79;21155;-65
2021/04/17 10:25:43;;;;;;;8.08;4.55;;;;;;;10.17;68.72;100114.51;1771900;80;23750;-69
2021/04/17 10:28:25;;;;;;;11.12;5.42;;;;;;;10.35;68.52;100115.55;1776817;80;21176;-69
2021/04/17 10:31:13;;;;;;;15.08;5.60;;;;;;;10.43;68.54;100117.41;1777035;79;21119;-67
2021/04/17 10:33:46;;;;;;;9.85;5.30;;;;;;;10.45;67.76;100114.28;1775938;80;21230;-68
2021/04/17 10:36:22;;;;;;;9.25;5.70;;;;;;;10.42;68.14;100114.41;1773337;80;21200;-70
2021/04/17 10:38:50;;;;;;;8.05;5.20;;;;;;;10.39;67.97;100119.77;1773117;80;21203;-69
2021/04/17 10:41:28;;;;;;;;;;;;;;;10.25;68.07;100116.79;1773518;80;21644;-69
2021/04/17 10:44:16;;;;;;;9.30;5.22;;;;;;;10.28;68.39;100111.05;1772424;80;20566;-68
2021/04/17 10:46:48;;;;;;;9.05;5.20;;;;;;;10.32;68.69;100105.24;1776895;79;21247;-70
2021/04/17 10:49:36;;;;;;;10.85;5.85;;;;;;;10.45;68.87;100102.54;1776329;79;21042;-67
2021/04/17 10:52:08;;;;;;;11.35;6.62;;;;;;;10.49;68.98;100101.48;1775089;79;22598;-68
2021/04/17 10:54:53;;;;;;;8.80;5.67;;;;;;;10.63;69.05;100104.00;1766821;79;21200;-70
2021/04/17 10:57:21;;;;;;;7.87;5.78;;;;;;;10.72;68.96;100100.99;1772578;80;21160;-71
2021/04/17 11:00:00;;;;;;;10.15;7.53;;;;;;;10.70;68.17;100100.23;1770494;80;21188;-71
2021/04/17 11:02:34;;;;;;;9.83;6.78;;;;;;;10.53;68.28;100097.02;1771159;79;21223;-72
2021/04/17 11:05:05;;;;;;;22.50;12.93;;;;;;;10.40;68.59;100100.56;1773018;80;21164;-70
2021/04/17 11:07:38;;;;;;;20.27;12.80;;;;;;;10.29;68.74;100100.15;1777464;79;21157;-71
2021/04/17 11:10:10;;;;;;;17.82;12.37;;;;;;;10.21;68.68;100108.24;1768398;80;21923;-71
2021/04/17 11:12:38;;;;;;;19.92;12.03;;;;;;;10.20;69.06;100112.23;1777650;79;21167;-71
2021/04/17 11:15:28;;;;;;;15.80;9.25;;;;;;;10.16;68.53;100109.34;1774450;80;21260;-71
2021/04/17 11:18:14;;;;;;;12.80;9.15;;;;;;;10.10;68.92;100107.81;1742865;79;21741;-72
2021/04/17 11:20:58;;;;;;;14.18;9.95;;;;;;;10.07;68.67;100107.94;1767482;80;21530;-71
2021/04/17 11:23:55;;;;;;;19.52;10.13;;;;;;;10.00;68.84;100106.49;1770558;79;21248;-70
2021/04/17 11:26:32;;;;;;;16.55;9.08;;;;;;;9.92;68.81;100106.78;1768295;80;21199;-71
2021/04/17 11:29:03;;;;;;;13.38;8.30;;;;;;;10.00;68.80;100107.34;1768859;80;21025;-70
2021/04/17 11:31:38;;;;;;;15.65;7.50;;;;;;;10.00;68.85;100103.88;1771712;79;21711;-70
2021/04/17 11:34:05;;;;;;;13.43;7.95;;;;;;;10.03;68.80;100103.30;1768482;79;21210;-69
2021/04/17 11:36:32;;;;;;;;;;;;;;;10.06;68.86;100107.09;1774034;80;21139;-70
2021/04/17 11:39:00;;;;;;;11.38;7.72;;;;;;;10.15;68.44;100102.42;1772212;80;20234;-70
2021/04/17 11:41:27;;;;;;;10.15;7.10;;;;;;;10.23;68.79;100099.06;1773512;80;21201;-70
2021/04/17 11:43:55;;;;;;;13.28;7.05;;;;;;;10.35;68.08;100105.12;1771132;79;21433;-71
2021/04/17 11:46:22;;;;;;;12.28;7.30;;;;;;;10.44;68.75;100109.11;1751677;80;22887;-70
2021/04/17 11:48:51;;;;;;;12.73;7.30;;;;;;;10.57;68.58;100108.17;1768164;79;21038;-70
2021/04/17 11:51:20;;;;;;;10.28;6.67;;;;;;;10.70;68.73;100104.15;1772362;80;21158;-69
2021/04/17 11:53:48;;;;;;;13.15;6.65;;;;;;;10.75;68.41;100101.73;1774459;79;21156;-68